Time;durP1;ratioP1;P1;durP2;ratioP2;P2;SDS_P1;SDS_P2;PMS_P1;PMS_P2;Temp;Humidity;BMP_temperature;BMP_pressure;BME280_temperature;BME280_humidity;BME280_pressure;Samples;Min_cycle;Max_cycle;Signal;HPM_P1;HPM_P2
2022/04/12 00:00:02;;;;;;;3.28;2.80;;;;;;;2.93;83.04;98941.63;5007471;28;20055;-71
2022/04/12 00:02:36;;;;;;;4.50;3.40;;;;;;;2.94;82.45;98950.38;5015368;28;20124;-69
2022/04/12 00:05:02;;;;;;;2.83;2.60;;;;;;;2.96;82.68;98951.16;5006543;28;20119;-70
2022/04/12 00:07:27;;;;;;;3.03;2.83;;;;;;;2.98;82.76;98945.81;4997776;28;20048;-71
2022/04/12 00:09:52;;;;;;;3.53;2.65;;;;;;;3.04;82.44;98938.47;5015430;28;20045;-67
2022/04/12 00:12:17;;;;;;;2.78;2.58;;;;;;;3.05;82.49;98929.59;4973550;28;20041;-69
2022/04/12 00:14:42;;;;;;;5.20;2.90;;;;;;;3.07;82.75;98929.53;4972337;28;20037;-68
2022/04/12 00:19:50;;;;;;;2.38;2.17;;;;;;;3.12;82.29;98912.56;5011496;28;20049;-69
2022/04/12 00:22:15;;;;;;;3.70;2.35;;;;;;;3.13;82.69;98903.75;5013731;28;20044;-68
2022/04/12 00:24:40;;;;;;;2.28;2.08;;;;;;;3.12;82.56;98907.31;5014872;28;20037;-66
2022/04/12 00:27:05;;;;;;;2.45;2.25;;;;;;;3.08;82.37;98889.09;4997250;28;20478;-68
2022/04/12 00:29:30;;;;;;;3.08;2.38;;;;;;;3.05;82.00;98878.75;5012898;28;20086;-67
2022/04/12 00:31:54;;;;;;;2.83;2.53;;;;;;;3.03;82.11;98877.97;4996645;28;20071;-69
2022/04/12 00:34:19;;;;;;;2.63;2.38;;;;;;;3.00;82.32;98873.72;5014375;28;20037;-73
2022/04/12 00:36:44;;;;;;;2.35;2.13;;;;;;;2.99;82.24;98860.63;5012353;28;20102;-72
2022/04/12 00:39:09;;;;;;;2.45;2.35;;;;;;;3.00;82.04;98854.44;4997620;28;20058;-71
2022/04/12 00:41:35;;;;;;;1.90;1.75;;;;;;;3.00;81.62;98870.25;5013599;28;20060;-68
2022/04/12 00:44:00;;;;;;;2.50;2.30;;;;;;;2.94;81.79;98876.66;4987586;28;20041;-72
2022/04/12 00:46:25;;;;;;;2.50;2.28;;;;;;;2.92;81.62;98895.19;5013865;28;20036;-72
2022/04/12 00:48:49;;;;;;;2.58;2.38;;;;;;;2.91;81.91;98895.28;5004096;28;20087;-72
2022/04/12 00:51:14;;;;;;;2.47;2.15;;;;;;;2.90;82.22;98888.31;5014100;28;20037;-73
2022/04/12 00:53:39;;;;;;;2.05;1.95;;;;;;;2.93;82.03;98890.78;5002050;28;20052;-73
2022/04/12 00:56:04;;;;;;;2.13;1.92;;;;;;;2.96;81.98;98877.44;5008027;28;20121;-69
2022/04/12 00:58:29;;;;;;;2.28;2.13;;;;;;;2.99;82.57;98872.00;5028398;28;20101;-66
2022/04/12 01:00:54;;;;;;;2.75;2.33;;;;;;;3.03;81.84;98865.66;5005956;28;20049;-71
2022/04/12 01:03:19;;;;;;;2.75;2.53;;;;;;;3.05;81.98;98861.13;5030842;28;20085;-66
2022/04/12 01:05:44;;;;;;;1.98;1.88;;;;;;;3.07;82.45;98864.56;5015979;28;20047;-70
2022/04/12 01:08:09;;;;;;;2.17;2.00;;;;;;;3.09;82.25;98867.97;5010899;28;20060;-68
2022/04/12 01:10:34;;;;;;;2.28;2.13;;;;;;;3.14;82.38;98868.56;5008832;28;20045;-70
2022/04/12 01:13:00;;;;;;;2.28;2.17;;;;;;;3.18;82.22;98872.72;5003791;28;20041;-69
2022/04/12 01:15:25;;;;;;;2.42;2.20;;;;;;;3.19;82.05;98861.25;5020997;28;20170;-67
2022/04/12 01:17:51;;;;;;;3.20;2.70;;;;;;;3.19;82.38;98853.34;5001468;28;20132;-70
2022/04/12 01:20:19;;;;;;;8.00;4.65;;;;;;;3.22;82.47;98863.75;5009600;28;20048;-67
2022/04/12 01:22:51;;;;;;;2.70;2.50;;;;;;;3.27;82.04;98860.88;5009257;28;20045;-67
2022/04/12 01:25:16;;;;;;;3.65;3.35;;;;;;;3.26;82.38;98854.75;5017063;28;20049;-68
2022/04/12 01:27:41;;;;;;;2.80;2.60;;;;;;;3.28;82.27;98844.09;5019371;28;20037;-70
2022/04/12 01:30:06;;;;;;;2.53;2.33;;;;;;;3.29;81.83;98844.03;5020310;28;20047;-70
2022/04/12 01:32:31;;;;;;;2.58;2.10;;;;;;;3.29;82.20;98836.13;5018220;28;20028;-70
2022/04/12 01:34:56;;;;;;;2.78;2.58;;;;;;;3.29;81.85;98836.13;5010598;28;20048;-69
2022/04/12 01:37:21;;;;;;;2.75;2.55;;;;;;;3.31;82.03;98832.56;5015640;28;20037;-68
2022/04/12 01:39:46;;;;;;;3.35;3.05;;;;;;;3.32;81.63;98834.25;5022936;28;20037;-68
2022/04/12 01:42:10;;;;;;;2.67;2.47;;;;;;;3.33;81.61;98828.06;5021253;28;20043;-66
2022/04/12 01:44:35;;;;;;;2.63;2.42;;;;;;;3.34;82.15;98833.25;5027624;28;20115;-69
2022/04/12 01:47:00;;;;;;;2.80;2.58;;;;;;;3.37;81.82;98824.31;5024291;28;20040;-66
2022/04/12 01:49:24;;;;;;;2.60;2.40;;;;;;;3.37;81.58;98824.31;5020165;28;20052;-68
2022/04/12 01:51:50;;;;;;;3.30;3.05;;;;;;;3.36;82.04;98814.72;5018077;28;20052;-69
2022/04/12 01:54:14;;;;;;;3.38;2.90;;;;;;;3.37;81.59;98822.53;5018625;28;20103;-68
2022/04/12 01:56:39;;;;;;;3.25;2.92;;;;;;;3.38;81.89;98813.72;5016808;28;20036;-68
2022/04/12 01:59:04;;;;;;;3.40;3.10;;;;;;;3.39;81.58;98812.75;4988624;28;20065;-70
2022/04/12 02:01:30;;;;;;;3.38;3.13;;;;;;;3.41;81.99;98823.19;4998802;28;20134;-70
2022/04/12 02:03:55;;;;;;;2.83;2.63;;;;;;;3.41;81.44;98818.78;5012028;28;20068;-71
2022/04/12 02:06:19;;;;;;;3.50;3.20;;;;;;;3.43;81.62;98821.34;5015501;28;20037;-71
2022/04/12 02:08:44;;;;;;;3.05;2.75;;;;;;;3.43;81.63;98810.81;5015195;28;20071;-71
2022/04/12 02:11:09;;;;;;;3.33;3.03;;;;;;;3.44;81.34;98815.13;5006229;28;20130;-69
2022/04/12 02:13:34;;;;;;;3.25;2.95;;;;;;;3.46;81.63;98819.41;4993278;28;20038;-69
2022/04/12 02:15:59;;;;;;;3.85;2.85;;;;;;;3.47;81.24;98822.88;5005251;28;20515;-69
2022/04/12 02:18:23;;;;;;;3.25;2.95;;;;;;;3.48;81.26;98821.94;4996828;28;20124;-69
2022/04/12 02:20:48;;;;;;;3.90;3.50;;;;;;;3.47;81.26;98817.63;5012427;28;20053;-67
2022/04/12 02:23:13;;;;;;;3.30;3.00;;;;;;;3.47;81.41;98801.81;4998920;28;20033;-69
2022/04/12 02:25:38;;;;;;;3.55;3.25;;;;;;;3.47;80.90;98788.63;4998730;28;20705;-69
2022/04/12 02:28:03;;;;;;;2.92;2.72;;;;;;;3.47;80.98;98770.19;4996653;28;20073;-67
2022/04/12 02:30:27;;;;;;;3.40;3.10;;;;;;;3.48;80.85;98766.63;4999015;28;20056;-72
2022/04/12 02:32:52;;;;;;;3.72;3.33;;;;;;;3.48;80.82;98770.09;4997681;28;20132;-63
2022/04/12 02:35:17;;;;;;;3.70;3.40;;;;;;;3.51;81.36;98780.44;4997174;28;20045;-64
2022/04/12 02:37:42;;;;;;;3.53;3.22;;;;;;;3.52;81.14;98781.28;4995717;28;20046;-63
2022/04/12 02:40:07;;;;;;;4.28;3.60;;;;;;;3.49;80.57;98795.53;4996184;28;20049;-63
2022/04/12 02:42:32;;;;;;;4.32;3.90;;;;;;;3.46;80.98;98806.22;4996063;28;20068;-64
2022/04/12 02:44:57;;;;;;;3.90;3.58;;;;;;;3.45;80.73;98801.88;4999547;28;20080;-64
2022/04/12 02:47:26;;;;;;;4.53;3.90;;;;;;;3.46;81.25;98802.72;5001293;28;20037;-65
2022/04/12 02:49:54;;;;;;;5.43;4.25;;;;;;;3.44;80.95;98801.97;4997995;28;20709;-67
2022/04/12 02:52:18;;;;;;;3.72;3.42;;;;;;;3.42;80.60;98801.19;5000415;28;20095;-65
2022/04/12 02:54:43;;;;;;;4.75;4.30;;;;;;;3.40;80.54;98803.06;5015862;28;20045;-64
2022/04/12 02:57:08;;;;;;;4.07;3.67;;;;;;;3.40;80.82;98811.81;5001931;28;20041;-63
2022/04/12 02:59:33;;;;;;;5.75;4.28;;;;;;;3.39;80.67;98807.47;4979667;28;20111;-64
2022/04/12 03:01:58;;;;;;;5.55;4.65;;;;;;;3.41;81.19;98797.72;4998200;28;20046;-65
2022/04/12 03:04:22;;;;;;;7.68;4.60;;;;;;;3.43;81.17;98810.81;4996883;28;20048;-65
2022/04/12 03:06:47;;;;;;;6.07;4.25;;;;;;;3.47;81.21;98809.72;4998372;28;20049;-63
2022/04/12 03:09:12;;;;;;;7.57;4.50;;;;;;;3.50;81.21;98806.91;5000873;28;20056;-65
2022/04/12 03:11:38;;;;;;;5.93;4.53;;;;;;;3.49;80.99;98808.69;5000218;28;20068;-65
2022/04/12 03:14:03;;;;;;;5.50;4.78;;;;;;;3.52;80.74;98808.50;5001697;28;20107;-63
2022/04/12 03:16:28;;;;;;;6.35;4.60;;;;;;;3.53;80.64;98810.19;5003626;28;20041;-68
2022/04/12 03:18:53;;;;;;;6.55;5.18;;;;;;;3.53;80.89;98806.72;5001215;28;20045;-64
2022/04/12 03:21:18;;;;;;;5.75;4.30;;;;;;;3.55;80.82;98796.94;4998031;28;20047;-70
2022/04/12 03:23:43;;;;;;;5.07;4.10;;;;;;;3.56;80.41;98799.50;4996264;28;20056;-63
2022/04/12 03:26:07;;;;;;;7.35;5.13;;;;;;;3.55;80.79;98799.56;4995268;28;20059;-67
2022/04/12 03:28:33;;;;;;;5.22;4.70;;;;;;;3.55;80.50;98794.31;4996369;28;20063;-67
2022/04/12 03:30:58;;;;;;;7.97;4.97;;;;;;;3.56;80.46;98788.09;4994766;28;20434;-64
2022/04/12 03:33:23;;;;;;;7.45;5.45;;;;;;;3.58;80.47;98788.88;4996436;28;20201;-65
2022/04/12 03:35:47;;;;;;;9.07;5.47;;;;;;;3.57;80.66;98785.38;4994363;28;20041;-69
2022/04/12 03:38:14;;;;;;;6.57;4.85;;;;;;;3.58;80.48;98783.59;4997158;28;20137;-74
2022/04/12 03:40:39;;;;;;;9.40;5.05;;;;;;;3.59;80.47;98788.78;4997065;28;20547;-71
2022/04/12 03:43:05;;;;;;;7.47;5.30;;;;;;;3.59;80.33;98794.06;4979456;28;20595;-72
2022/04/12 03:45:31;;;;;;;7.75;4.78;;;;;;;3.62;80.32;98798.28;4994836;28;20420;-69
2022/04/12 03:47:55;;;;;;;6.60;5.50;;;;;;;3.65;80.24;98798.13;4993420;28;20045;-71
2022/04/12 03:50:20;;;;;;;9.55;5.25;;;;;;;3.66;80.49;98799.81;4979619;28;20135;-70
2022/04/12 03:52:45;;;;;;;8.68;6.45;;;;;;;3.70;80.12;98814.53;4978769;28;20077;-70
2022/04/12 03:55:10;;;;;;;7.20;5.50;;;;;;;3.71;79.88;98812.75;4997067;28;20049;-69
2022/04/12 03:57:35;;;;;;;7.05;4.93;;;;;;;3.69;80.14;98818.09;4995919;28;20037;-69
2022/04/12 04:00:00;;;;;;;8.20;5.35;;;;;;;3.67;80.13;98817.34;5008987;28;20057;-69
2022/04/12 04:02:25;;;;;;;9.75;5.95;;;;;;;3.67;80.65;98817.34;4998674;28;20052;-68
2022/04/12 04:04:49;;;;;;;9.40;5.68;;;;;;;3.68;80.43;98808.50;4998777;28;20029;-68
2022/04/12 04:07:14;;;;;;;11.82;6.20;;;;;;;3.68;80.36;98820.81;5017737;28;20045;-68
2022/04/12 04:09:39;;;;;;;11.68;6.10;;;;;;;3.68;80.22;98811.13;5014808;28;20075;-69
2022/04/12 04:12:04;;;;;;;9.52;5.82;;;;;;;3.71;80.56;98826.78;4997638;28;20045;-69
2022/04/12 04:14:31;;;;;;;10.98;6.95;;;;;;;3.72;80.59;98810.03;4997883;28;20582;-68
2022/04/12 04:16:57;;;;;;;9.82;6.38;;;;;;;3.72;80.14;98807.41;4998417;28;20789;-71
2022/04/12 04:19:22;;;;;;;11.35;6.95;;;;;;;3.73;80.19;98819.59;5014518;28;20044;-69
2022/04/12 04:21:46;;;;;;;12.88;6.13;;;;;;;3.73;80.06;98811.69;5014249;28;20040;-69
2022/04/12 04:24:11;;;;;;;7.25;5.63;;;;;;;3.75;80.37;98809.84;4997987;28;20040;-70
2022/04/12 04:26:36;;;;;;;11.23;7.05;;;;;;;3.76;80.43;98810.69;4997466;28;20044;-70
2022/04/12 04:29:01;;;;;;;16.90;7.07;;;;;;;3.75;80.14;98809.84;5014914;28;20499;-69
2022/04/12 04:31:26;;;;;;;12.98;8.70;;;;;;;3.79;80.18;98821.06;5030553;28;20055;-68
2022/04/12 04:33:51;;;;;;;13.30;7.32;;;;;;;3.83;80.34;98822.59;5003344;28;20041;-68
2022/04/12 04:36:15;;;;;;;11.18;6.75;;;;;;;3.86;80.03;98811.84;5015512;28;20407;-68
2022/04/12 04:38:40;;;;;;;10.07;7.07;;;;;;;3.88;80.37;98805.56;5013560;28;20041;-67
2022/04/12 04:41:05;;;;;;;10.88;7.18;;;;;;;3.92;80.48;98804.47;5014012;28;20047;-68
2022/04/12 04:43:30;;;;;;;14.45;7.85;;;;;;;3.96;80.43;98813.00;5014840;28;20040;-68
2022/04/12 04:45:54;;;;;;;13.75;7.53;;;;;;;4.00;80.27;98807.50;5014123;28;20487;-69
2022/04/12 04:48:19;;;;;;;12.38;7.65;;;;;;;4.03;80.66;98798.56;5000654;28;20392;-68
2022/04/12 04:50:44;;;;;;;12.63;7.20;;;;;;;4.07;80.11;98804.47;5000957;28;20041;-68
2022/04/12 04:53:11;;;;;;;11.70;8.00;;;;;;;4.09;80.05;98802.59;5004201;28;20045;-68
2022/04/12 04:55:37;;;;;;;12.68;8.02;;;;;;;4.12;80.21;98805.06;5001760;28;20040;-68
2022/04/12 04:58:03;;;;;;;10.55;7.38;;;;;;;4.15;80.17;98802.28;5019050;28;20511;-67
2022/04/12 05:00:34;;;;;;;11.23;8.25;;;;;;;4.15;80.07;98797.00;4996734;28;20053;-68
2022/04/12 05:02:59;;;;;;;17.23;8.38;;;;;;;4.16;79.77;98793.41;4980724;28;20415;-67
2022/04/12 05:05:25;;;;;;;11.60;7.70;;;;;;;4.17;79.99;98787.22;5001291;28;20506;-68
2022/04/12 05:07:52;;;;;;;10.25;7.70;;;;;;;4.18;79.92;98788.88;5011275;28;20051;-69
2022/04/12 05:10:19;;;;;;;12.20;8.07;;;;;;;4.16;79.66;98782.88;5002656;28;20050;-70
2022/04/12 05:12:45;;;;;;;14.98;8.88;;;;;;;4.13;79.35;98789.16;5007715;28;20056;-70
2022/04/12 05:15:10;;;;;;;10.85;5.82;;;;;;;4.20;79.96;98787.00;4998020;28;20119;-70
2022/04/12 05:17:35;;;;;;;14.60;9.43;;;;;;;4.13;79.53;98796.22;4997263;28;20076;-72
2022/04/12 05:19:59;;;;;;;16.27;9.27;;;;;;;4.12;79.47;98798.00;4993828;28;20123;-70
2022/04/12 05:22:25;;;;;;;12.25;8.85;;;;;;;4.13;79.60;98812.91;4979111;28;20046;-70
2022/04/12 05:24:50;;;;;;;15.77;8.75;;;;;;;4.17;79.50;98810.94;4994155;28;20048;-69
2022/04/12 05:27:15;;;;;;;14.50;8.40;;;;;;;4.15;79.47;98821.59;4993565;28;20041;-72
2022/04/12 05:29:40;;;;;;;14.90;9.30;;;;;;;4.13;79.54;98818.19;5010566;28;20077;-71
2022/04/12 05:32:06;;;;;;;13.48;8.75;;;;;;;4.13;80.26;98817.31;5013000;28;20050;-70
2022/04/12 05:34:30;;;;;;;15.35;8.95;;;;;;;4.16;79.98;98811.88;5001934;28;20101;-71
2022/04/12 05:36:55;;;;;;;14.52;9.52;;;;;;;4.21;80.06;98818.56;5002807;28;20050;-70
2022/04/12 05:39:20;;;;;;;12.70;9.73;;;;;;;4.27;79.80;98817.38;4997085;28;20041;-71
2022/04/12 05:41:44;;;;;;;22.08;12.40;;;;;;;4.28;79.65;98814.66;4993635;28;20052;-71
2022/04/12 05:44:09;;;;;;;15.30;9.90;;;;;;;4.27;79.92;98812.09;4978628;28;20499;-70
2022/04/12 05:46:34;;;;;;;14.60;8.90;;;;;;;4.28;79.84;98806.72;4993731;28;20058;-70
2022/04/12 05:48:58;;;;;;;17.88;10.90;;;;;;;4.33;79.89;98807.28;4977257;28;20044;-70
2022/04/12 05:51:23;;;;;;;14.90;10.00;;;;;;;4.40;80.01;98805.16;4996485;28;20099;-70
2022/04/12 05:53:48;;;;;;;14.18;10.02;;;;;;;4.48;79.85;98810.81;4981919;28;20108;-70
2022/04/12 05:56:12;;;;;;;21.00;10.85;;;;;;;4.55;79.89;98806.00;4982450;28;20057;-69
2022/04/12 05:58:40;;;;;;;19.45;10.90;;;;;;;4.65;79.98;98800.06;4980810;28;20129;-70
2022/04/12 06:01:05;;;;;;;17.80;10.70;;;;;;;4.76;79.88;98804.69;5009026;28;20048;-71
2022/04/12 06:03:30;;;;;;;18.17;10.93;;;;;;;4.90;79.73;98809.13;4998445;28;20041;-72
2022/04/12 06:05:54;;;;;;;17.50;11.48;;;;;;;5.02;79.56;98808.38;4977133;28;20049;-72
2022/04/12 06:08:19;;;;;;;17.85;10.40;;;;;;;5.13;79.79;98813.00;5013391;28;20124;-72
2022/04/12 06:10:44;;;;;;;16.92;11.60;;;;;;;5.23;79.01;98804.38;4999549;28;20057;-73
2022/04/12 06:13:08;;;;;;;19.00;11.32;;;;;;;5.30;78.71;98799.59;4999540;28;20045;-72
2022/04/12 06:15:33;;;;;;;18.90;12.48;;;;;;;5.37;78.41;98816.75;4964855;28;20073;-72
2022/04/12 06:17:58;;;;;;;16.83;11.23;;;;;;;5.39;78.50;98818.34;4997982;28;20048;-73
2022/04/12 06:20:23;;;;;;;16.42;11.75;;;;;;;5.41;78.42;98819.09;4998188;28;20049;-74
2022/04/12 06:22:48;;;;;;;16.48;10.88;;;;;;;5.44;78.44;98807.47;4998737;28;20041;-72
2022/04/12 06:25:19;;;;;;;20.85;11.65;;;;;;;5.46;77.96;98814.34;4998430;28;20041;-71
2022/04/12 06:27:50;;;;;;;17.38;11.70;;;;;;;5.45;78.25;98809.16;4998016;28;20119;-70
2022/04/12 06:30:17;;;;;;;17.75;11.27;;;;;;;5.43;78.01;98806.63;5000389;28;20056;-69
2022/04/12 06:32:43;;;;;;;22.25;12.55;;;;;;;5.45;78.10;98810.00;4979674;28;20576;-72
2022/04/12 06:35:09;;;;;;;21.85;12.98;;;;;;;5.47;78.03;98817.84;4979530;28;20377;-70
2022/04/12 06:37:34;;;;;;;21.20;12.43;;;;;;;5.56;78.27;98819.91;4979699;28;20120;-70
2022/04/12 06:39:59;;;;;;;22.73;13.75;;;;;;;5.65;77.99;98818.44;4996112;28;20128;-70
2022/04/12 06:42:25;;;;;;;25.90;13.55;;;;;;;5.71;78.14;98813.63;4998003;28;20056;-71
2022/04/12 06:44:50;;;;;;;23.38;13.57;;;;;;;5.81;77.96;98824.47;4963852;28;20476;-72
2022/04/12 06:47:18;;;;;;;24.58;14.98;;;;;;;5.95;77.64;98821.81;4980272;28;20454;-71
2022/04/12 06:49:47;;;;;;;24.70;12.82;;;;;;;6.08;77.41;98817.41;4998313;28;20052;-70
2022/04/12 06:52:13;;;;;;;19.63;12.98;;;;;;;6.15;77.36;98823.97;4980224;28;20411;-70
2022/04/12 06:54:38;;;;;;;22.67;13.25;;;;;;;6.21;77.23;98827.16;4980884;28;20041;-71
2022/04/12 06:57:03;;;;;;;21.63;13.35;;;;;;;6.23;77.00;98823.44;4998094;28;20056;-70
2022/04/12 06:59:29;;;;;;;23.20;15.35;;;;;;;6.26;76.78;98823.25;4997772;28;20060;-70
2022/04/12 07:01:54;;;;;;;21.38;14.65;;;;;;;6.27;76.45;98839.97;4980486;28;20049;-71
2022/04/12 07:04:18;;;;;;;23.25;14.57;;;;;;;6.26;76.19;98830.34;4980614;28;20041;-71
2022/04/12 07:06:43;;;;;;;25.55;14.27;;;;;;;6.23;76.33;98818.16;4980608;28;20049;-70
2022/04/12 07:09:15;;;;;;;23.38;15.80;;;;;;;6.22;76.51;98827.03;4980406;28;20049;-70
2022/04/12 07:11:40;;;;;;;30.20;15.38;;;;;;;6.22;76.52;98834.97;4998214;28;20040;-73
2022/04/12 07:14:05;;;;;;;26.88;15.38;;;;;;;6.22;76.48;98828.84;4980042;28;20037;-70
2022/04/12 07:16:30;;;;;;;26.30;15.98;;;;;;;6.23;76.66;98827.88;4964012;28;20132;-70
2022/04/12 07:18:54;;;;;;;25.15;15.65;;;;;;;6.25;76.78;98829.50;4997905;28;20123;-70
2022/04/12 07:21:21;;;;;;;24.05;15.05;;;;;;;6.31;76.34;98836.19;4996843;28;20054;-69
2022/04/12 07:23:50;;;;;;;30.52;16.10;;;;;;;6.36;76.90;98839.38;4963265;28;20458;-69
2022/04/12 07:26:15;;;;;;;28.80;16.00;;;;;;;6.39;76.56;98832.06;4996385;28;20087;-69
2022/04/12 07:28:40;;;;;;;25.58;15.55;;;;;;;6.44;76.53;98837.88;4978631;28;20041;-70
2022/04/12 07:31:04;;;;;;;29.17;17.27;;;;;;;6.47;76.50;98834.19;4962488;28;20048;-70
2022/04/12 07:33:29;;;;;;;26.40;15.82;;;;;;;6.48;76.44;98830.59;4979143;28;20052;-68
2022/04/12 07:35:54;;;;;;;26.58;15.95;;;;;;;6.50;76.33;98848.09;4979154;28;20152;-69
2022/04/12 07:38:19;;;;;;;28.85;17.00;;;;;;;6.53;76.30;98839.94;4997039;28;20124;-69
2022/04/12 07:40:44;;;;;;;32.13;16.58;;;;;;;6.62;75.88;98837.59;4996462;28;20068;-70
2022/04/12 07:43:10;;;;;;;26.17;16.98;;;;;;;6.64;75.95;98844.50;4977998;28;20037;-71
2022/04/12 07:45:35;;;;;;;30.40;16.95;;;;;;;6.65;75.70;98845.34;4978175;28;20095;-71
2022/04/12 07:48:00;;;;;;;25.10;16.13;;;;;;;6.64;75.43;98859.53;4996018;28;20055;-71
2022/04/12 07:50:24;;;;;;;26.67;15.45;;;;;;;6.61;75.60;98844.69;4961700;28;20598;-71
2022/04/12 07:52:49;;;;;;;26.45;15.93;;;;;;;6.60;75.89;98839.50;4996687;28;20059;-70
2022/04/12 07:55:14;;;;;;;24.13;15.23;;;;;;;6.58;75.81;98850.19;4965179;28;20045;-71
2022/04/12 07:57:38;;;;;;;27.77;16.38;;;;;;;6.56;75.62;98852.09;5005388;28;20132;-71
2022/04/12 08:00:05;;;;;;;27.25;14.77;;;;;;;6.55;75.85;98864.50;4970927;28;20111;-75
2022/04/12 08:02:37;;;;;;;30.47;16.17;;;;;;;6.56;75.77;98858.25;5002093;28;20049;-72
2022/04/12 08:05:02;;;;;;;29.60;16.33;;;;;;;6.59;75.47;98859.84;4983189;28;20103;-71
2022/04/12 08:07:27;;;;;;;26.00;14.50;;;;;;;6.62;75.76;98851.69;4963389;28;20500;-72
2022/04/12 08:09:51;;;;;;;24.63;15.45;;;;;;;6.65;75.51;98854.16;4946072;28;20526;-71
2022/04/12 08:12:16;;;;;;;25.88;16.33;;;;;;;6.67;75.80;98844.28;4989535;28;20033;-74
2022/04/12 08:14:41;;;;;;;24.00;15.77;;;;;;;6.75;75.37;98839.31;4983026;28;20043;-72
2022/04/12 08:17:06;;;;;;;28.85;16.63;;;;;;;6.77;75.69;98837.38;5003261;28;20389;-72
2022/04/12 08:19:30;;;;;;;31.08;18.05;;;;;;;6.79;75.02;98838.13;5001208;28;20044;-71
2022/04/12 08:21:55;;;;;;;30.02;16.52;;;;;;;6.80;75.09;98844.28;5013545;28;20552;-71
2022/04/12 08:24:21;;;;;;;31.38;17.60;;;;;;;6.85;75.12;98847.47;5014897;28;20045;-72
2022/04/12 08:26:46;;;;;;;35.13;17.10;;;;;;;6.87;75.11;98841.13;4997481;28;20489;-71
2022/04/12 08:29:11;;;;;;;26.90;17.23;;;;;;;6.93;75.19;98845.13;4997026;28;20470;-71
2022/04/12 08:31:36;;;;;;;30.90;17.27;;;;;;;7.02;74.87;98848.94;4997039;28;20136;-71
2022/04/12 08:34:00;;;;;;;26.02;17.33;;;;;;;7.13;74.84;98839.28;5014914;28;20055;-71
2022/04/12 08:36:25;;;;;;;24.48;16.17;;;;;;;7.26;75.34;98852.53;4997403;28;20135;-71
2022/04/12 08:38:51;;;;;;;34.63;17.63;;;;;;;7.38;74.45;98846.38;5015318;28;20040;-72
2022/04/12 08:41:16;;;;;;;33.00;17.23;;;;;;;7.48;73.98;98839.44;4997690;28;20499;-72
2022/04/12 08:43:41;;;;;;;30.35;17.17;;;;;;;7.57;73.96;98846.72;5015115;28;20049;-71
2022/04/12 08:46:07;;;;;;;26.60;16.23;;;;;;;7.63;74.12;98833.03;5015379;28;20462;-71
2022/04/12 08:48:33;;;;;;;25.23;16.15;;;;;;;7.69;73.45;98846.81;5015289;28;20037;-72
2022/04/12 08:50:59;;;;;;;32.60;17.50;;;;;;;7.73;73.39;98845.63;5014912;28;20049;-71
2022/04/12 08:53:24;;;;;;;31.17;17.33;;;;;;;7.74;73.39;98837.56;5014816;28;20051;-71
2022/04/12 08:55:49;;;;;;;37.38;18.95;;;;;;;7.74;73.58;98837.56;4997156;28;20059;-70
2022/04/12 08:58:14;;;;;;;29.45;18.02;;;;;;;7.78;73.21;98830.25;5016504;28;20072;-69
2022/04/12 09:00:39;;;;;;;40.00;19.17;;;;;;;7.82;73.36;98840.50;5017545;28;20077;-71
2022/04/12 09:03:04;;;;;;;36.33;18.52;;;;;;;7.89;73.62;98846.22;4965775;28;20049;-73
2022/04/12 09:05:32;;;;;;;31.90;18.17;;;;;;;7.98;73.27;98843.75;5000373;28;20041;-73
2022/04/12 09:07:57;;;;;;;30.75;17.85;;;;;;;8.14;72.66;98851.41;5017387;28;20049;-69
2022/04/12 09:10:33;;;;;;;29.98;17.95;;;;;;;8.33;72.63;98857.09;5000565;28;20048;-69
2022/04/12 09:13:16;;;;;;;31.83;18.55;;;;;;;8.51;72.09;98851.34;5025996;28;20049;-70
2022/04/12 09:15:45;;;;;;;33.55;18.70;;;;;;;8.62;72.11;98851.38;5015862;28;20037;-70
2022/04/12 09:18:10;;;;;;;34.55;16.90;;;;;;;8.68;71.81;98854.44;5014880;28;20052;-70
2022/04/12 09:20:35;;;;;;;37.22;19.52;;;;;;;8.70;71.03;98870.22;5015347;28;20044;-71
2022/04/12 09:23:00;;;;;;;27.88;18.00;;;;;;;8.74;70.77;98861.06;5015872;28;20045;-71
2022/04/12 09:25:25;;;;;;;36.40;20.17;;;;;;;8.66;70.39;98866.13;4997292;28;20040;-72
2022/04/12 09:27:49;;;;;;;36.58;18.13;;;;;;;8.54;70.68;98867.06;5015701;28;20048;-70
2022/04/12 09:30:15;;;;;;;35.72;19.80;;;;;;;8.50;71.07;98862.94;5015347;28;20043;-70
2022/04/12 09:32:48;;;;;;;33.20;19.80;;;;;;;8.58;71.48;98863.19;4982677;28;20147;-70
2022/04/12 09:35:13;;;;;;;38.20;20.85;;;;;;;8.56;71.02;98858.03;5018876;28;20040;-71
2022/04/12 09:37:42;;;;;;;41.05;21.00;;;;;;;8.62;70.77;98862.84;5018506;28;20049;-71
2022/04/12 09:40:09;;;;;;;40.25;21.17;;;;;;;8.67;70.82;98866.03;4984542;28;20044;-71
2022/04/12 09:42:53;;;;;;;35.85;20.88;;;;;;;8.75;71.10;98876.06;5000895;28;20040;-71
2022/04/12 09:45:30;;;;;;;30.33;18.52;;;;;;;8.83;70.95;98870.16;5001020;28;20522;-72
2022/04/12 09:47:57;;;;;;;26.63;16.45;;;;;;;8.82;70.56;98868.44;5009530;28;20041;-70
2022/04/12 09:50:23;;;;;;;32.63;18.38;;;;;;;8.85;70.98;98869.06;5025021;28;20118;-71
2022/04/12 09:52:53;;;;;;;29.83;18.00;;;;;;;8.87;70.62;98867.16;5017768;28;20186;-70
2022/04/12 09:55:39;;;;;;;29.00;17.55;;;;;;;8.95;70.36;98874.53;5018221;28;20115;-69
2022/04/12 09:58:09;;;;;;;31.20;18.08;;;;;;;8.92;70.41;98875.59;5017742;28;20487;-68
2022/04/12 10:00:35;;;;;;;30.80;17.58;;;;;;;8.93;69.78;98877.28;4999967;28;20059;-68
2022/04/12 10:03:04;;;;;;;33.70;17.20;;;;;;;9.01;69.78;98868.75;5000207;28;20041;-69
2022/04/12 10:05:29;;;;;;;30.38;16.60;;;;;;;9.06;70.25;98872.72;5017761;28;20093;-69
2022/04/12 10:07:57;;;;;;;23.98;16.15;;;;;;;9.12;69.98;98876.75;5017857;28;20049;-69
2022/04/12 10:10:23;;;;;;;25.13;15.80;;;;;;;9.12;69.31;98876.75;4999977;28;20045;-69
2022/04/12 10:12:48;;;;;;;29.98;16.05;;;;;;;9.09;69.86;98879.63;5017774;28;20092;-68
2022/04/12 10:15:13;;;;;;;25.63;17.00;;;;;;;9.05;69.91;98887.00;4984213;28;20041;-72
2022/04/12 10:17:39;;;;;;;32.72;17.55;;;;;;;9.03;69.50;98896.88;5018711;28;20132;-71
2022/04/12 10:20:06;;;;;;;30.52;15.75;;;;;;;9.01;69.66;98893.53;5003024;28;20103;-72
2022/04/12 10:22:31;;;;;;;24.88;15.73;;;;;;;9.00;69.16;98891.81;5019384;28;20532;-72
2022/04/12 10:24:57;;;;;;;31.38;16.00;;;;;;;9.03;69.85;98894.22;5000070;28;20041;-73
2022/04/12 10:27:22;;;;;;;30.63;16.48;;;;;;;9.05;69.96;98891.47;5001044;28;20118;-72
2022/04/12 10:30:20;;;;;;;30.08;16.20;;;;;;;9.19;69.58;98906.34;4984554;28;20091;-72
2022/04/12 10:33:05;;;;;;;28.95;16.30;;;;;;;9.17;69.45;98905.63;5018046;28;20045;-74
2022/04/12 10:35:54;;;;;;;;;;;;;;;9.29;69.87;98910.84;4983863;28;20033;-70
2022/04/12 10:38:19;;;;;;;30.48;16.23;;;;;;;9.21;69.64;98912.41;4999503;28;19917;-71
2022/04/12 10:40:46;;;;;;;34.15;15.80;;;;;;;9.26;69.41;98907.56;4999790;28;20177;-71
2022/04/12 10:43:12;;;;;;;33.03;16.52;;;;;;;9.34;69.50;98903.34;5017187;28;20098;-71
2022/04/12 10:45:45;;;;;;;24.85;16.38;;;;;;;9.48;69.16;98894.28;4999063;28;20080;-72
2022/04/12 10:48:19;;;;;;;27.33;15.20;;;;;;;9.54;68.51;98896.47;5016161;28;20049;-70
2022/04/12 10:50:46;;;;;;;28.65;16.83;;;;;;;9.56;68.68;98901.66;5017341;28;20110;-70
2022/04/12 10:53:11;;;;;;;24.83;15.13;;;;;;;9.61;68.31;98895.00;5016097;28;20044;-71
2022/04/12 10:55:43;;;;;;;26.70;16.20;;;;;;;9.65;68.36;98891.13;5007868;28;20048;-72
2022/04/12 10:58:13;;;;;;;24.38;15.57;;;;;;;9.59;68.42;98890.78;4990731;28;20517;-71
2022/04/12 11:00:41;;;;;;;25.70;14.73;;;;;;;9.54;68.57;98871.66;5025246;28;20053;-70
2022/04/12 11:03:06;;;;;;;30.20;15.43;;;;;;;9.54;68.62;98880.50;4983799;28;20469;-70
2022/04/12 11:05:37;;;;;;;27.00;16.33;;;;;;;9.58;68.55;98884.63;4983495;28;20526;-67
2022/04/12 11:08:31;;;;;;;26.63;15.85;;;;;;;9.67;68.15;98883.88;4967333;28;20060;-64
2022/04/12 11:10:55;;;;;;;28.83;15.40;;;;;;;9.58;68.00;98868.66;4998150;28;20063;-65
2022/04/12 11:13:22;;;;;;;27.98;16.65;;;;;;;9.47;68.43;98876.63;5018779;28;20049;-70
2022/04/12 11:15:55;;;;;;;33.72;15.35;;;;;;;9.45;68.72;98873.25;5034278;28;20047;-68
2022/04/12 11:18:20;;;;;;;23.70;14.75;;;;;;;9.32;68.13;98870.72;5019671;28;20048;-68
2022/04/12 11:21:02;;;;;;;28.17;15.27;;;;;;;9.34;68.50;98865.28;5009565;28;20045;-70
2022/04/12 11:24:08;;;;;;;21.52;13.30;;;;;;;9.30;68.82;98871.78;5019388;28;20562;-75
2022/04/12 11:26:48;;;;;;;26.25;15.07;;;;;;;9.22;69.04;98868.88;4950196;28;20106;-72
2022/04/12 11:29:18;;;;;;;29.20;14.85;;;;;;;9.15;69.44;98875.63;4931391;28;20457;-72